createdAt,value
2022-11-01T00:02:17.919Z,14.91
2022-11-01T00:04:45.327Z,14.95
2022-11-01T00:07:12.672Z,14.92
2022-11-01T00:09:40.009Z,14.78
2022-11-01T00:12:07.449Z,14.70
2022-11-01T00:14:34.851Z,14.64
2022-11-01T00:17:02.742Z,14.57
2022-11-01T00:19:30.120Z,14.41
2022-11-01T00:21:57.478Z,14.41
2022-11-01T00:24:27.924Z,14.41
2022-11-01T00:26:58.207Z,14.48
2022-11-01T00:29:28.585Z,14.55
2022-11-01T00:31:56.782Z,14.57
2022-11-01T00:34:26.492Z,14.48
2022-11-01T00:36:54.395Z,14.31
2022-11-01T00:39:21.758Z,14.41
2022-11-01T00:41:49.086Z,14.50
2022-11-01T00:44:17.754Z,14.50
2022-11-01T00:46:45.076Z,14.38
2022-11-01T00:49:12.492Z,14.22
2022-11-01T00:51:39.875Z,14.16
2022-11-01T00:54:07.482Z,14.10
2022-11-01T00:56:37.747Z,14.11
2022-11-01T00:59:05.101Z,14.14
2022-11-01T01:01:32.775Z,14.20
2022-11-01T01:04:00.180Z,14.21
2022-11-01T01:06:27.454Z,14.19
2022-11-01T01:08:58.524Z,14.16
2022-11-01T01:11:26.316Z,14.21
2022-11-01T01:13:53.678Z,14.06
2022-11-01T01:16:21.100Z,13.99
2022-11-01T01:18:49.577Z,13.95
2022-11-01T01:21:17.600Z,13.94
2022-11-01T01:23:46.782Z,13.88
2022-11-01T01:26:14.473Z,13.85
2022-11-01T01:28:43.769Z,13.76
2022-11-01T01:31:16.187Z,13.73
2022-11-01T01:33:43.583Z,13.58
2022-11-01T01:36:11.145Z,13.60
2022-11-01T01:38:38.627Z,13.53
2022-11-01T01:41:25.421Z,13.44
2022-11-01T01:43:52.856Z,13.41
2022-11-01T01:46:20.468Z,13.38
2022-11-01T01:48:54.961Z,13.45
2022-11-01T01:51:26.459Z,13.47
2022-11-01T01:53:58.104Z,13.48
2022-11-01T01:56:30.789Z,13.54
2022-11-01T01:59:03.170Z,13.54
2022-11-01T02:01:31.715Z,13.48
2022-11-01T02:04:02.625Z,13.50
2022-11-01T02:06:33.373Z,13.50
2022-11-01T02:09:03.227Z,13.63
2022-11-01T02:11:30.537Z,13.63
2022-11-01T02:13:58.895Z,13.53
2022-11-01T02:16:52.279Z,13.55
2022-11-01T02:19:25.612Z,13.41
2022-11-01T02:22:20.382Z,13.45
2022-11-01T02:25:10.917Z,13.24
2022-11-01T02:27:56.432Z,13.19
2022-11-01T02:30:26.111Z,13.13
2022-11-01T02:33:05.654Z,13.08
2022-11-01T02:35:45.064Z,13.13
2022-11-01T02:38:41.663Z,13.04
2022-11-01T02:41:25.037Z,13.07
2022-11-01T02:44:02.362Z,13.12
2022-11-01T02:46:58.523Z,13.18
2022-11-01T02:49:34.060Z,13.05
2022-11-01T02:52:02.859Z,12.91
2022-11-01T02:54:38.962Z,12.95
2022-11-01T02:57:27.607Z,12.95
2022-11-01T03:00:05.072Z,12.89
2022-11-01T03:02:41.548Z,12.85
2022-11-01T03:05:16.944Z,12.99
2022-11-01T03:07:50.520Z,12.87
2022-11-01T03:10:24.197Z,12.85
2022-11-01T03:13:02.288Z,12.79
2022-11-01T03:15:39.669Z,12.74
2022-11-01T03:18:21.765Z,12.72
2022-11-01T03:21:00.870Z,12.82
2022-11-01T03:23:36.337Z,12.81
2022-11-01T03:26:08.927Z,12.77
2022-11-01T03:28:45.913Z,12.80
2022-11-01T03:31:24.187Z,12.76
2022-11-01T03:33:56.568Z,12.79
2022-11-01T03:36:27.845Z,12.72
2022-11-01T03:38:59.800Z,12.75
2022-11-01T03:41:28.305Z,12.81
2022-11-01T03:43:56.160Z,12.76
2022-11-01T03:46:26.241Z,12.78
2022-11-01T03:48:53.597Z,12.78
2022-11-01T03:51:22.130Z,12.73
2022-11-01T03:53:49.461Z,12.74
2022-11-01T03:56:16.806Z,12.81
2022-11-01T03:58:45.250Z,13.11
2022-11-01T04:01:16.592Z,13.30
2022-11-01T04:03:45.033Z,13.26
2022-11-01T04:06:12.383Z,13.10
2022-11-01T04:08:39.859Z,13.18
2022-11-01T04:11:07.281Z,13.14
2022-11-01T04:13:34.651Z,13.07
2022-11-01T04:16:20.616Z,13.05
2022-11-01T04:19:06.512Z,12.86
2022-11-01T04:21:36.742Z,12.82
2022-11-01T04:24:04.310Z,12.82
2022-11-01T04:26:31.710Z,12.82
2022-11-01T04:28:59.057Z,12.80
2022-11-01T04:31:28.059Z,12.81
2022-11-01T04:33:56.862Z,12.79
2022-11-01T04:36:24.764Z,12.81
2022-11-01T04:38:55.738Z,12.78
2022-11-01T04:41:24.839Z,12.77
2022-11-01T04:44:00.235Z,12.75
2022-11-01T04:46:31.882Z,12.80
2022-11-01T04:48:59.243Z,12.81
2022-11-01T04:51:26.837Z,12.82
2022-11-01T04:53:54.138Z,12.78
2022-11-01T04:56:21.448Z,12.81
2022-11-01T04:58:48.746Z,12.70
2022-11-01T05:01:16.246Z,12.69
2022-11-01T05:03:43.753Z,12.67
2022-11-01T05:06:13.597Z,12.78
2022-11-01T05:08:43.852Z,12.68
2022-11-01T05:11:11.177Z,12.66
2022-11-01T05:13:40.525Z,12.57
2022-11-01T05:16:19.838Z,12.43
2022-11-01T05:18:48.761Z,12.41
2022-11-01T05:21:17.878Z,12.43
2022-11-01T05:23:47.950Z,12.39
2022-11-01T05:26:15.355Z,12.37
2022-11-01T05:28:42.733Z,12.37
2022-11-01T05:31:10.107Z,12.37
2022-11-01T05:33:38.488Z,12.40
2022-11-01T05:36:06.211Z,12.42
2022-11-01T05:38:33.568Z,12.35
2022-11-01T05:41:04.107Z,12.31
2022-11-01T05:43:31.572Z,12.24
2022-11-01T05:46:00.754Z,12.21
2022-11-01T05:48:28.118Z,12.22
2022-11-01T05:50:55.473Z,12.19
2022-11-01T05:53:22.820Z,12.25
2022-11-01T05:55:50.249Z,12.35
2022-11-01T05:58:17.569Z,12.52
2022-11-01T06:00:44.929Z,12.54
2022-11-01T06:03:12.283Z,12.62
2022-11-01T06:05:39.802Z,12.67
2022-11-01T06:08:07.360Z,12.75
2022-11-01T06:10:34.996Z,12.80
2022-11-01T06:13:02.712Z,12.85
2022-11-01T06:15:33.107Z,12.80
2022-11-01T06:18:04.202Z,12.86
2022-11-01T06:20:32.753Z,12.98
2022-11-01T06:23:00.537Z,12.85
2022-11-01T06:25:27.992Z,12.81
2022-11-01T06:27:55.305Z,12.87
2022-11-01T06:30:24.454Z,13.00
2022-11-01T06:32:52.994Z,13.23
2022-11-01T06:35:20.383Z,13.40
2022-11-01T06:37:47.664Z,13.70
2022-11-01T06:40:14.997Z,13.86
2022-11-01T06:42:46.381Z,13.94
2022-11-01T06:45:14.326Z,14.11
2022-11-01T06:47:46.530Z,14.23
2022-11-01T06:50:13.936Z,14.48
2022-11-01T06:52:41.278Z,14.64
2022-11-01T06:55:08.818Z,14.75
2022-11-01T06:57:36.103Z,14.80
2022-11-01T07:00:06.960Z,14.89
2022-11-01T07:02:34.447Z,14.95
2022-11-01T07:05:01.918Z,15.02
2022-11-01T07:07:29.406Z,15.16
2022-11-01T07:09:56.660Z,15.25
2022-11-01T07:12:23.973Z,15.41
2022-11-01T07:14:51.201Z,15.51
2022-11-01T07:17:18.565Z,15.67
2022-11-01T07:19:45.866Z,15.88
2022-11-01T07:22:14.345Z,15.98
2022-11-01T07:24:41.704Z,15.93
2022-11-01T07:27:09.055Z,15.89
2022-11-01T07:29:36.300Z,15.91
2022-11-01T07:32:03.592Z,15.86
2022-11-01T07:34:32.906Z,15.80
2022-11-01T07:37:02.360Z,15.70
2022-11-01T07:39:29.658Z,15.63
2022-11-01T07:41:58.987Z,15.58
2022-11-01T07:44:26.246Z,15.54
2022-11-01T07:46:53.632Z,15.52
2022-11-01T07:49:21.036Z,15.57
2022-11-01T07:51:48.318Z,15.57
2022-11-01T07:54:15.619Z,15.64
2022-11-01T07:56:43.053Z,15.81
2022-11-01T07:59:10.329Z,15.90
2022-11-01T08:01:37.738Z,15.99
2022-11-01T08:04:05.442Z,16.07
2022-11-01T08:06:32.860Z,16.09
2022-11-01T08:09:00.190Z,16.26
2022-11-01T08:11:28.631Z,16.20
2022-11-01T08:14:02.893Z,16.15
2022-11-01T08:16:33.522Z,16.18
2022-11-01T08:19:00.882Z,16.26
2022-11-01T08:21:28.276Z,16.37
2022-11-01T08:23:55.636Z,16.48
2022-11-01T08:26:23.009Z,16.51
2022-11-01T08:28:50.931Z,16.51
2022-11-01T08:31:21.208Z,16.57
2022-11-01T08:33:48.642Z,16.85
2022-11-01T08:36:17.405Z,16.82
2022-11-01T08:38:44.744Z,16.81
2022-11-01T08:41:12.112Z,16.74
2022-11-01T08:43:40.689Z,16.78
2022-11-01T08:46:10.686Z,16.70
2022-11-01T08:48:40.802Z,16.61
2022-11-01T08:51:08.146Z,16.50
2022-11-01T08:53:35.439Z,16.51
2022-11-01T08:56:02.829Z,16.54
2022-11-01T08:58:30.145Z,16.61
2022-11-01T09:00:57.459Z,16.54
2022-11-01T09:03:24.802Z,16.58
2022-11-01T09:05:55.043Z,16.71
2022-11-01T09:08:25.145Z,16.92
2022-11-01T09:10:57.896Z,17.02
2022-11-01T09:13:25.382Z,17.17
2022-11-01T09:15:58.479Z,17.37
2022-11-01T09:18:28.703Z,17.71
2022-11-01T09:20:56.549Z,17.88
2022-11-01T09:23:23.902Z,17.75
2022-11-01T09:25:51.366Z,18.05
2022-11-01T09:28:18.700Z,18.16
2022-11-01T09:30:50.231Z,18.03
2022-11-01T09:33:28.507Z,18.18
2022-11-01T09:35:59.543Z,18.01
2022-11-01T09:38:27.978Z,18.01
2022-11-01T09:41:14.297Z,18.16
2022-11-01T09:43:44.065Z,18.10
2022-11-01T09:46:15.871Z,17.93
2022-11-01T09:48:45.505Z,17.93
2022-11-01T09:51:19.716Z,17.97
2022-11-01T09:53:54.068Z,18.01
2022-11-01T09:56:30.387Z,18.11
2022-11-01T09:59:22.661Z,18.02
2022-11-01T10:02:26.381Z,18.01
2022-11-01T10:05:27.613Z,18.00
2022-11-01T10:08:10.758Z,17.82
2022-11-01T10:11:09.399Z,17.83
2022-11-01T10:13:54.336Z,17.92
2022-11-01T10:16:37.721Z,17.87
2022-11-01T10:19:17.462Z,17.80
2022-11-01T10:21:47.117Z,17.83
2022-11-01T10:24:20.520Z,17.81
2022-11-01T10:26:54.111Z,17.77
2022-11-01T10:29:36.252Z,17.76
2022-11-01T10:32:04.254Z,17.71
2022-11-01T10:34:38.671Z,17.70
2022-11-01T10:37:23.556Z,17.76
2022-11-01T10:39:59.057Z,17.77
2022-11-01T10:42:30.364Z,17.80
2022-11-01T10:45:06.549Z,17.85
2022-11-01T10:47:33.940Z,17.93
2022-11-01T10:50:20.939Z,18.03
2022-11-01T10:52:48.171Z,18.05
2022-11-01T10:55:33.136Z,18.02
2022-11-01T10:58:08.658Z,18.05
2022-11-01T11:00:40.048Z,18.08
2022-11-01T11:03:30.382Z,18.04
2022-11-01T11:06:01.541Z,18.07
2022-11-01T11:08:28.969Z,18.09
2022-11-01T11:11:01.636Z,18.06
2022-11-01T11:13:30.481Z,18.09
2022-11-01T11:16:05.453Z,18.12
2022-11-01T11:18:35.402Z,18.15
2022-11-01T11:21:06.179Z,18.18
2022-11-01T11:23:34.758Z,18.19
2022-11-01T11:26:16.585Z,18.27
2022-11-01T11:28:48.900Z,18.29
2022-11-01T11:31:23.101Z,18.23
2022-11-01T11:33:56.570Z,18.27
2022-11-01T11:36:34.011Z,18.29
2022-11-01T11:39:02.820Z,18.29
2022-11-01T11:41:33.222Z,18.32
2022-11-01T11:44:01.613Z,18.34
2022-11-01T11:46:29.520Z,18.35
2022-11-01T11:49:07.215Z,18.37
2022-11-01T11:51:39.430Z,18.41
2022-11-01T11:54:37.670Z,18.48
2022-11-01T11:57:11.699Z,18.47
2022-11-01T11:59:40.191Z,18.47
2022-11-01T12:02:18.965Z,18.53
2022-11-01T12:04:53.195Z,18.55
2022-11-01T12:07:27.659Z,18.57
2022-11-01T12:09:56.337Z,18.63
2022-11-01T12:12:29.608Z,18.61
2022-11-01T12:14:58.950Z,18.76
2022-11-01T12:17:44.837Z,18.74
2022-11-01T12:20:22.309Z,18.77
2022-11-01T12:22:59.218Z,18.82
2022-11-01T12:25:26.884Z,18.85
2022-11-01T12:28:03.481Z,18.86
2022-11-01T12:30:33.506Z,19.00
2022-11-01T12:33:27.779Z,19.02
2022-11-01T12:35:58.445Z,18.97
2022-11-01T12:38:48.891Z,18.99
2022-11-01T12:41:38.059Z,18.98
2022-11-01T12:44:43.967Z,18.98
2022-11-01T12:47:27.790Z,18.98
2022-11-01T12:50:07.292Z,19.12
2022-11-01T12:53:01.191Z,19.21
2022-11-01T12:55:39.916Z,19.24
2022-11-01T12:58:19.127Z,19.29
2022-11-01T13:01:02.350Z,19.27
2022-11-01T13:03:49.678Z,19.29
2022-11-01T13:06:54.330Z,19.24
2022-11-01T13:09:40.478Z,19.13
2022-11-01T13:12:40.135Z,19.10
2022-11-01T13:15:25.591Z,19.09
2022-11-01T13:18:35.787Z,19.09
2022-11-01T13:21:15.342Z,18.99
2022-11-01T13:23:49.981Z,18.98
2022-11-01T13:26:37.645Z,18.97
2022-11-01T13:29:14.327Z,18.93
2022-11-01T13:32:07.487Z,18.93
2022-11-01T13:35:02.120Z,18.94
2022-11-01T13:37:45.339Z,18.87
2022-11-01T13:40:18.666Z,18.85
2022-11-01T13:42:59.939Z,18.87
2022-11-01T13:45:33.540Z,18.86
2022-11-01T13:48:18.992Z,18.89
2022-11-01T13:50:58.386Z,18.94
2022-11-01T13:53:25.684Z,18.93
2022-11-01T13:55:55.434Z,18.87
2022-11-01T13:58:23.929Z,18.87
2022-11-01T14:00:54.533Z,18.83
2022-11-01T14:03:31.578Z,18.75
2022-11-01T14:06:11.560Z,18.74
2022-11-01T14:08:44.038Z,18.73
2022-11-01T14:11:32.337Z,18.72
2022-11-01T14:13:59.864Z,18.70
2022-11-01T14:16:28.236Z,18.68
2022-11-01T14:19:20.752Z,18.68
2022-11-01T14:21:51.830Z,18.67
2022-11-01T14:24:33.829Z,18.63
2022-11-01T14:27:07.859Z,18.65
2022-11-01T14:29:36.630Z,18.64
2022-11-01T14:32:05.718Z,18.58
2022-11-01T14:34:36.094Z,18.56
2022-11-01T14:37:13.881Z,18.58
2022-11-01T14:39:49.674Z,18.60
2022-11-01T14:42:23.243Z,18.55
2022-11-01T14:44:53.808Z,18.51
2022-11-01T14:47:31.398Z,18.47
2022-11-01T14:50:02.919Z,18.43
2022-11-01T14:52:40.681Z,18.37
2022-11-01T14:55:32.286Z,18.36
2022-11-01T14:58:19.617Z,18.34
2022-11-01T15:00:49.703Z,18.32
2022-11-01T15:03:18.470Z,18.34
2022-11-01T15:05:49.114Z,18.32
2022-11-01T15:08:44.719Z,18.31
2022-11-01T15:11:12.189Z,18.28
2022-11-01T15:13:43.061Z,18.23
2022-11-01T15:16:16.007Z,18.20
2022-11-01T15:18:51.734Z,18.18
2022-11-01T15:21:25.515Z,18.18
2022-11-01T15:23:57.424Z,18.16
2022-11-01T15:26:30.434Z,18.14
2022-11-01T15:29:01.432Z,18.12
2022-11-01T15:31:29.364Z,18.07
2022-11-01T15:34:06.350Z,18.04
2022-11-01T15:36:36.838Z,18.03
2022-11-01T15:39:17.499Z,18.04
2022-11-01T15:41:46.612Z,18.00
2022-11-01T15:44:32.448Z,17.91
2022-11-01T15:47:02.338Z,17.77
2022-11-01T15:49:32.082Z,17.78
2022-11-01T15:52:05.201Z,17.81
2022-11-01T15:54:32.473Z,17.84
2022-11-01T15:57:04.486Z,17.82
2022-11-01T15:59:36.785Z,17.80
2022-11-01T16:02:08.671Z,17.79
2022-11-01T16:04:40.915Z,17.85
2022-11-01T16:07:12.490Z,17.83
2022-11-01T16:09:47.358Z,17.86
2022-11-01T16:12:27.185Z,17.87
2022-11-01T16:15:06.475Z,17.84
2022-11-01T16:17:42.892Z,17.76
2022-11-01T16:20:34.469Z,17.68
2022-11-01T16:23:07.025Z,17.65
2022-11-01T16:25:39.319Z,17.66
2022-11-01T16:28:09.617Z,17.67
2022-11-01T16:30:46.509Z,17.60
2022-11-01T16:33:30.738Z,17.61
2022-11-01T16:36:20.819Z,17.61
2022-11-01T16:38:51.976Z,17.58
2022-11-01T16:41:22.712Z,17.52
2022-11-01T16:43:55.364Z,17.52
2022-11-01T16:46:24.426Z,17.44
2022-11-01T16:49:05.623Z,17.34
2022-11-01T16:51:33.728Z,17.19
2022-11-01T16:54:01.315Z,17.19
2022-11-01T16:56:38.446Z,17.19
2022-11-01T16:59:12.429Z,17.07
2022-11-01T17:01:40.000Z,17.00
2022-11-01T17:04:11.294Z,16.90
2022-11-01T17:06:39.508Z,16.87
2022-11-01T17:09:14.757Z,16.85
2022-11-01T17:11:47.803Z,16.85
2022-11-01T17:14:18.118Z,16.81
2022-11-01T17:16:47.632Z,16.78
2022-11-01T17:19:21.452Z,16.75
2022-11-01T17:21:50.901Z,16.69
2022-11-01T17:24:21.336Z,16.70
2022-11-01T17:26:51.014Z,16.67
2022-11-01T17:29:18.409Z,16.63
2022-11-01T17:31:45.735Z,16.69
2022-11-01T17:34:16.899Z,16.67
2022-11-01T17:36:48.037Z,16.65
2022-11-01T17:39:15.531Z,16.67
2022-11-01T17:41:42.921Z,16.65
2022-11-01T17:44:12.205Z,16.62
2022-11-01T17:46:40.031Z,16.64
2022-11-01T17:49:07.487Z,16.64
2022-11-01T17:51:34.891Z,16.62
2022-11-01T17:54:02.224Z,16.61
2022-11-01T17:56:29.596Z,16.57
2022-11-01T17:58:56.911Z,16.55
2022-11-01T18:01:24.889Z,16.51
2022-11-01T18:03:52.287Z,16.49
2022-11-01T18:06:19.632Z,16.46
2022-11-01T18:08:50.504Z,16.47
2022-11-01T18:11:34.457Z,16.47
2022-11-01T18:14:30.980Z,16.47
2022-11-01T18:17:13.201Z,16.49
2022-11-01T18:19:59.111Z,16.51
2022-11-01T18:22:38.427Z,16.46
2022-11-01T18:25:24.259Z,16.47
2022-11-01T18:27:51.795Z,16.47
2022-11-01T18:30:19.529Z,16.54
2022-11-01T18:33:04.950Z,16.54
2022-11-01T18:35:41.888Z,16.37
2022-11-01T18:38:21.904Z,16.32
2022-11-01T18:40:57.217Z,16.31
2022-11-01T18:43:27.078Z,16.33
2022-11-01T18:46:23.476Z,16.40
2022-11-01T18:48:42.792Z,16.44
2022-11-01T18:51:21.247Z,16.57
2022-11-01T18:53:54.813Z,16.55
2022-11-01T18:56:25.567Z,16.47
2022-11-01T18:58:55.327Z,16.52
2022-11-01T19:01:32.525Z,16.50
2022-11-01T19:04:21.481Z,16.37
2022-11-01T19:06:51.554Z,16.30
2022-11-01T19:09:24.472Z,16.34
2022-11-01T19:12:00.860Z,16.22
2022-11-01T19:14:30.436Z,16.25
2022-11-01T19:16:58.132Z,16.21
2022-11-01T19:19:25.571Z,16.07
2022-11-01T19:21:59.059Z,16.14
2022-11-01T19:24:36.132Z,16.04
2022-11-01T19:27:18.418Z,15.94
2022-11-01T19:29:45.853Z,15.95
2022-11-01T19:32:16.402Z,16.01
2022-11-01T19:34:43.898Z,15.93
2022-11-01T19:37:34.626Z,15.81
2022-11-01T19:40:09.953Z,15.73
2022-11-01T19:42:38.868Z,15.71
2022-11-01T19:45:12.385Z,15.79
2022-11-01T19:47:43.231Z,15.74
2022-11-01T19:50:34.061Z,15.62
2022-11-01T19:53:01.654Z,15.70
2022-11-01T19:56:05.039Z,15.68
2022-11-01T19:58:49.078Z,15.53
2022-11-01T20:01:16.596Z,15.48
2022-11-01T20:03:46.056Z,15.43
2022-11-01T20:06:21.288Z,15.37
2022-11-01T20:08:58.422Z,15.30
2022-11-01T20:11:26.959Z,15.29
2022-11-01T20:13:57.575Z,15.35
2022-11-01T20:16:25.781Z,15.32
2022-11-01T20:18:53.883Z,15.28
2022-11-01T20:21:22.486Z,15.31
2022-11-01T20:23:50.073Z,15.23
2022-11-01T20:26:17.533Z,15.22
2022-11-01T20:28:44.955Z,15.15
2022-11-01T20:31:13.930Z,15.13
2022-11-01T20:33:41.467Z,15.12
2022-11-01T20:36:11.437Z,15.10
2022-11-01T20:38:40.875Z,15.14
2022-11-01T20:41:09.720Z,15.07
2022-11-01T20:43:37.377Z,15.05
2022-11-01T20:46:04.963Z,15.01
2022-11-01T20:48:34.204Z,14.93
2022-11-01T20:51:01.913Z,14.95
2022-11-01T20:53:30.036Z,15.00
2022-11-01T20:55:57.572Z,14.93
2022-11-01T20:58:28.574Z,14.94
2022-11-01T21:00:56.462Z,14.93
2022-11-01T21:03:25.623Z,14.96
2022-11-01T21:05:53.301Z,14.93
2022-11-01T21:08:34.207Z,14.90
2022-11-01T21:11:08.131Z,14.89
2022-11-01T21:13:39.052Z,14.92
2022-11-01T21:16:24.335Z,14.91
2022-11-01T21:18:54.975Z,14.88
2022-11-01T21:21:27.417Z,14.86
2022-11-01T21:23:55.182Z,14.81
2022-11-01T21:26:25.917Z,14.58
2022-11-01T21:29:02.353Z,14.58
2022-11-01T21:31:34.502Z,14.65
2022-11-01T21:34:11.015Z,14.70
2022-11-01T21:36:48.472Z,14.65
2022-11-01T21:39:26.994Z,14.63
2022-11-01T21:41:57.069Z,14.70
2022-11-01T21:44:40.022Z,14.73
2022-11-01T21:47:23.333Z,14.72
2022-11-01T21:49:51.445Z,14.59
2022-11-01T21:52:21.630Z,14.59
2022-11-01T21:54:49.347Z,14.68
2022-11-01T21:57:17.311Z,14.64
2022-11-01T21:59:44.941Z,14.61
2022-11-01T22:02:14.307Z,14.63
2022-11-01T22:04:42.175Z,14.56
2022-11-01T22:07:11.082Z,14.52
2022-11-01T22:09:39.089Z,14.42
2022-11-01T22:12:07.051Z,14.42
2022-11-01T22:14:34.990Z,14.33
2022-11-01T22:17:02.413Z,14.15
2022-11-01T22:19:29.789Z,14.15
2022-11-01T22:21:57.130Z,14.06
2022-11-01T22:24:27.115Z,13.90
2022-11-01T22:26:54.462Z,13.88
2022-11-01T22:29:21.814Z,13.74
2022-11-01T22:31:49.163Z,13.70
2022-11-01T22:34:17.471Z,13.79
2022-11-01T22:36:44.954Z,13.84
2022-11-01T22:39:23.522Z,13.92
2022-11-01T22:41:51.309Z,14.01
2022-11-01T22:44:25.299Z,14.10
2022-11-01T22:46:58.991Z,13.99
2022-11-01T22:49:31.448Z,13.98
2022-11-01T22:52:16.768Z,13.96
2022-11-01T22:54:47.726Z,14.00
2022-11-01T22:57:19.117Z,14.02
2022-11-01T22:59:51.808Z,14.07
2022-11-01T23:02:33.604Z,14.08
2022-11-01T23:05:24.886Z,14.02
2022-11-01T23:07:57.973Z,14.03
2022-11-01T23:10:25.646Z,13.90
2022-11-01T23:13:19.469Z,13.79
2022-11-01T23:15:47.166Z,13.74
2022-11-01T23:18:27.808Z,13.74
2022-11-01T23:21:00.460Z,13.75
2022-11-01T23:23:29.023Z,13.80
2022-11-01T23:25:59.370Z,13.83
2022-11-01T23:28:27.647Z,13.87
2022-11-01T23:30:56.386Z,13.87
2022-11-01T23:33:30.935Z,13.67
2022-11-01T23:36:00.934Z,13.47
2022-11-01T23:38:51.200Z,13.27
2022-11-01T23:41:23.664Z,13.11
2022-11-01T23:43:53.696Z,13.11
2022-11-01T23:46:21.264Z,13.19
2022-11-01T23:48:49.214Z,13.20
2022-11-01T23:51:21.343Z,13.25
2022-11-01T23:53:52.970Z,13.25
2022-11-01T23:56:22.009Z,13.29
2022-11-01T23:59:04.303Z,13.27
